createdAt,value
2022-08-08T05:32:04.050Z,16.80
2022-08-08T05:35:09.622Z,17.10
2022-08-08T05:38:30.242Z,17.20
2022-08-08T05:41:54.650Z,18.00
2022-08-08T05:45:24.725Z,19.60
2022-08-08T05:48:28.257Z,20.50
2022-08-08T05:51:48.497Z,22.20
2022-08-08T05:54:53.583Z,23.80
2022-08-08T05:58:06.159Z,23.70
2022-08-08T06:01:52.821Z,22.70
2022-08-08T06:04:47.769Z,23.80
2022-08-08T06:08:02.506Z,25.50
2022-08-08T06:11:13.385Z,27.90
2022-08-08T06:49:56.308Z,29.90
2022-08-08T06:53:09.734Z,29.00
2022-08-08T06:56:16.491Z,29.60
2022-08-08T06:59:18.853Z,29.70
2022-08-08T07:02:29.455Z,30.30
2022-08-08T07:05:40.251Z,31.40
2022-08-08T07:08:47.417Z,31.80
2022-08-08T07:11:54.993Z,32.70
2022-08-08T07:15:06.480Z,31.20
2022-08-08T07:18:42.766Z,30.90
2022-08-08T07:22:00.507Z,31.30
2022-08-08T07:25:09.024Z,31.70
2022-08-08T07:28:19.745Z,32.10
2022-08-08T07:31:22.473Z,32.20
2022-08-08T07:34:31.837Z,32.20
2022-08-08T07:37:56.283Z,32.40
2022-08-08T07:40:59.098Z,32.60
2022-08-08T07:44:17.667Z,33.20
2022-08-08T07:47:29.151Z,33.50
2022-08-08T07:50:43.001Z,33.70
2022-08-08T07:54:06.302Z,33.90
2022-08-08T07:57:48.299Z,34.40
2022-08-08T08:00:52.935Z,34.00
2022-08-08T08:04:04.309Z,33.20
2022-08-08T08:07:08.811Z,34.40
2022-08-08T08:10:12.954Z,35.00
2022-08-08T08:13:43.068Z,34.80
2022-08-08T08:17:00.681Z,35.20
2022-08-08T08:20:04.611Z,35.60
2022-08-08T08:23:06.269Z,34.80
2022-08-08T08:26:08.147Z,36.10
2022-08-08T08:29:09.962Z,36.40
2022-08-08T08:32:32.042Z,34.60
2022-08-08T08:36:19.953Z,34.60
2022-08-08T08:39:00.814Z,35.50
2022-08-08T08:42:03.216Z,36.80
2022-08-08T08:45:16.501Z,36.10
2022-08-08T08:48:24.563Z,35.80
2022-08-08T08:51:28.700Z,35.20
2022-08-08T08:54:34.869Z,35.40
2022-08-08T08:57:36.724Z,34.90
2022-08-08T09:01:03.894Z,35.50
2022-08-08T09:04:05.891Z,34.20
2022-08-08T09:07:14.956Z,35.60
2022-08-08T09:10:17.794Z,35.60
2022-08-08T09:13:25.301Z,35.60
2022-08-08T09:16:32.875Z,36.20
2022-08-08T09:21:56.922Z,36.10
2022-08-08T09:22:58.835Z,37.20
2022-08-08T09:26:08.159Z,36.70
2022-08-08T09:29:24.614Z,36.20
2022-08-08T09:33:11.920Z,35.70
2022-08-08T09:36:04.560Z,35.50
2022-08-08T09:39:15.243Z,35.80
2022-08-08T09:42:23.550Z,35.70
2022-08-08T09:46:04.079Z,35.60
2022-08-08T09:49:41.127Z,35.70
2022-08-08T09:52:55.575Z,35.40
2022-08-08T09:56:06.132Z,34.80
2022-08-08T09:59:42.682Z,34.50
2022-08-08T10:02:37.042Z,35.90
2022-08-08T10:05:42.507Z,35.10
2022-08-08T10:08:50.222Z,34.40
2022-08-08T10:12:25.993Z,34.10
2022-08-08T10:15:17.317Z,34.30
2022-08-08T10:18:30.912Z,34.80
2022-08-08T10:21:50.126Z,35.80
2022-08-08T10:25:04.610Z,35.70
2022-08-08T10:28:08.461Z,35.60
2022-08-08T10:31:46.615Z,34.70
2022-08-08T10:35:00.329Z,33.80
2022-08-08T10:38:08.227Z,34.60
2022-08-08T10:41:16.770Z,33.70
2022-08-08T10:44:34.522Z,33.90
2022-08-08T10:47:43.772Z,33.20
2022-08-08T10:50:50.138Z,33.00
2022-08-08T10:53:56.812Z,33.10
2022-08-08T10:57:03.992Z,33.40
2022-08-08T11:00:10.319Z,34.40
2022-08-08T11:03:16.083Z,34.50
2022-08-08T11:06:18.066Z,34.40
2022-08-08T11:09:21.820Z,34.00
2022-08-08T11:12:24.709Z,33.70
2022-08-08T11:15:31.264Z,34.30
2022-08-08T11:18:36.750Z,34.70
2022-08-08T11:21:45.217Z,34.70
2022-08-08T11:25:01.398Z,34.10
2022-08-08T11:28:04.227Z,33.60
2022-08-08T11:31:09.583Z,33.40
2022-08-08T11:34:24.153Z,33.00
2022-08-08T11:38:34.654Z,32.10
2022-08-08T11:40:56.452Z,32.30
2022-08-08T11:43:58.595Z,32.00
2022-08-08T11:47:02.797Z,32.20
2022-08-08T11:50:23.426Z,31.20
2022-08-08T11:53:25.742Z,30.40
2022-08-08T11:56:34.401Z,29.90
2022-08-08T11:59:57.962Z,29.80
2022-08-08T12:03:00.987Z,29.70
2022-08-08T12:06:13.799Z,29.90
2022-08-08T12:09:16.997Z,29.40
2022-08-08T12:12:28.918Z,29.10
2022-08-08T12:15:42.738Z,29.00
2022-08-08T12:18:53.893Z,29.30
2022-08-08T12:22:09.326Z,29.40
2022-08-08T12:25:33.464Z,29.20
2022-08-08T12:28:40.382Z,29.10
2022-08-08T12:31:53.785Z,29.40
2022-08-08T12:35:01.204Z,29.40
2022-08-08T12:38:09.070Z,29.60
2022-08-08T12:41:16.713Z,29.70
2022-08-08T12:44:30.303Z,29.70
2022-08-08T12:47:59.103Z,29.50
2022-08-08T12:50:58.468Z,29.50
2022-08-08T12:54:01.931Z,29.20
2022-08-08T12:57:23.421Z,28.50
2022-08-08T13:00:34.010Z,28.40
2022-08-08T13:03:49.072Z,28.30
2022-08-08T13:07:01.299Z,28.60
2022-08-08T13:10:15.112Z,28.60
2022-08-08T13:13:38.051Z,28.60
2022-08-08T13:16:40.613Z,28.60
2022-08-08T13:19:50.215Z,28.70
2022-08-08T13:23:30.992Z,28.80
2022-08-08T13:26:32.581Z,28.70
2022-08-08T13:29:37.940Z,28.90
2022-08-08T13:32:42.640Z,29.30
2022-08-08T13:35:45.874Z,29.30
2022-08-08T13:38:52.501Z,29.00
2022-08-08T13:42:01.205Z,28.80
2022-08-08T13:45:04.575Z,28.80
2022-08-08T13:48:14.611Z,29.00
2022-08-08T13:51:34.314Z,28.80
2022-08-08T13:54:49.730Z,28.90
2022-08-08T13:58:08.001Z,28.60
2022-08-08T14:01:18.548Z,28.70
2022-08-08T14:04:22.983Z,28.80
2022-08-08T14:07:26.427Z,28.90
2022-08-08T14:10:37.406Z,28.80
2022-08-08T14:14:00.120Z,28.70
2022-08-08T14:17:05.223Z,28.70
2022-08-08T14:20:14.883Z,28.60
2022-08-08T14:24:07.768Z,28.60
2022-08-08T14:27:37.727Z,28.70
2022-08-08T14:30:47.592Z,28.90
2022-08-08T14:33:55.093Z,29.00
2022-08-08T14:36:56.896Z,28.80
2022-08-08T14:40:05.498Z,28.80
2022-08-08T14:43:22.225Z,28.90
2022-08-08T14:46:32.994Z,29.00
2022-08-08T14:49:51.480Z,29.10
2022-08-08T14:53:04.275Z,29.30
2022-08-08T14:56:06.359Z,29.20
2022-08-08T14:59:22.609Z,29.10
2022-08-08T15:02:34.007Z,29.00
2022-08-08T15:05:43.087Z,29.00
2022-08-08T15:08:56.604Z,29.20
2022-08-08T15:11:59.213Z,29.20
2022-08-08T15:15:00.911Z,28.90
2022-08-08T15:18:10.659Z,28.90
2022-08-08T15:21:13.473Z,28.80
2022-08-08T15:24:16.166Z,28.80
2022-08-08T15:28:05.215Z,28.90
2022-08-08T15:30:40.945Z,28.70
2022-08-08T15:33:59.236Z,28.60
2022-08-08T15:37:03.740Z,28.60
2022-08-08T15:40:11.134Z,28.70
2022-08-08T15:43:35.048Z,28.90
2022-08-08T15:46:39.249Z,29.10
2022-08-08T15:49:48.902Z,28.80
2022-08-08T15:52:52.758Z,28.60
2022-08-08T15:55:55.248Z,28.50
2022-08-08T15:58:57.085Z,28.30
